Delray Beach, FL

2:24 PM EDT on August 02, 2015 (GMT -0400)
Delray Beach | | Change Station
CLOSE
Current Station
Personal Weather Station
Location: Delray Beach, FL
Elevation: 30 ft
Nearby Weather Stations

Elev 30 ft 26.47 °N, 80.09 °W | Updated 27 seconds ago

Partly Cloudy
Partly Cloudy
74.3 °F
Feels Like 75 °F
N
2.7
Wind Variable Wind from SE
Gusts 5.8 mph

Today
High -- | Low -- °F
--% Chance of Precip.
Yesterday
High -- | Low -- °F
Precip. -- in
6:45 AM 8:06 PM
Waning Gibbous, 92% visible
Pressure 29.99 in
Visibility 10.0 miles
Clouds Scattered Clouds 3000 ft
Scattered Clouds 3700 ft
Heat Index 75 °F
Dew Point 68 °F
Humidity 81%
Rainfall 0.04 in
Snow Depth Not available.
UV 12 out of 12
Pollen 3.40 out of 12
Air Quality Not available.
Flu Activity Not available.
METAR KPMP 021753Z 24005KT 10SM SCT030 SCT037CB 30/21 A2999 RMK AO2 LTG DSNT SW TSB16E43 SLP155 T03000206 10333 20283 51002

More Conditions Fewer Conditions

Pressure 29.99 in
Visibility 10.0 miles
Clouds Scattered Clouds 3000 ft
Scattered Clouds 3700 ft
Heat Index 75 °F
Dew Point 68 °F
Humidity 81%
Rainfall 0.04 in
Snow Depth Not available.
UV 12 out of 12
Pollen 3.40 out of 12
Air Quality Not available.
Flu Activity Not available.
METAR KPMP 021753Z 24005KT 10SM SCT030 SCT037CB 30/21 A2999 RMK AO2 LTG DSNT SW TSB16E43 SLP155 T03000206 10333 20283 51002

More Conditions Fewer Conditions

Nowcast | as of 2:23 PM EDT on August 2, 2015

Through 5 PM, showers and thunderstorms will move north and be most concentrated over inland sections of Miami-Dade, Broward and Palm Beach counties, as well as over southwest Florida from the Immokalee area across Hendry County to eastern Glades County and Lake Okeechobee. Gusty winds to 40 mph, occasional lightning and very heavy rain will accompany the stronger showers and storms. Although the bulk of the rainfall will be inland, a few showers or thunderstorms will affect Metro Southeast Florida primarily in Broward and Palm Beach counties. Elsewhere, including most of coastal sections of Miami-Dade and Collier counties, mostly dry conditions will prevail.

×

10-Day Weather Forecast

×

Almanac

Astronomy

Aug. 02, 2015 Rise Set
Actual Time
Civil Twilight
Nautical Twilight
Astronomical Twilight
Moon
Length of Visible Light
Length of Day
Tomorrow will be .
, % of the Moon is Illuminated

Today's Extremes

State Highs State Lows

Community

WunderPhotos

Upload Photos

1,843,333 photos uploaded!

WunderBlogs® & News

Nearby

Air Quality

  Air Quality AQ Index Pollutant
Not available.

Snow Depth

Station Depth Elevation

Earthquake Activity

City Distance Mag. Time & Date
Minimum magnitude displayed is 2.5.

Coastal Water Temperatures

Place Temperature

Stations

Nearby Weather Stations

Station Location Temp. Windchill Dew Point Humidity Wind Precip. Elev Updated Type